createdAt,value
2023-03-14T00:00:00.806Z,95913.94
2023-03-14T00:01:10.325Z,95910.78
2023-03-14T00:02:12.286Z,95914.56
2023-03-14T00:03:14.087Z,95888.50
2023-03-14T00:04:15.893Z,95900.31
2023-03-14T00:05:17.700Z,95902.28
2023-03-14T00:06:19.606Z,95884.09
2023-03-14T00:07:21.597Z,95853.88
2023-03-14T00:08:23.306Z,95876.91
2023-03-14T00:09:25.062Z,95891.47
2023-03-14T00:10:26.836Z,95724.19
2023-03-14T00:11:28.631Z,95862.94
2023-03-14T00:12:30.499Z,95712.47
2023-03-14T00:13:32.254Z,95897.28
2023-03-14T00:14:34.163Z,95852.75
2023-03-14T00:15:36.828Z,95769.28
2023-03-14T00:16:38.716Z,95863.91
2023-03-14T00:17:40.856Z,95895.31
2023-03-14T00:18:42.793Z,95890.78
2023-03-14T00:19:44.614Z,95875.44
2023-03-14T00:20:46.425Z,95873.88
2023-03-14T00:21:48.386Z,95661.69
2023-03-14T00:22:50.114Z,95879.94
2023-03-14T00:23:52.665Z,95882.25
2023-03-14T00:24:54.502Z,95867.13
2023-03-14T00:26:04.797Z,95864.72
2023-03-14T00:27:06.606Z,95878.19
2023-03-14T00:28:08.362Z,95678.19
2023-03-14T00:29:10.094Z,95873.97
2023-03-14T00:30:12.044Z,95877.59
2023-03-14T00:31:16.684Z,95830.97
2023-03-14T00:32:18.567Z,95693.94
2023-03-14T00:33:21.845Z,95727.00
2023-03-14T00:34:23.867Z,95870.84
2023-03-14T00:35:25.738Z,95871.50
2023-03-14T00:36:27.493Z,95871.66
2023-03-14T00:37:29.343Z,95846.09
2023-03-14T00:38:32.865Z,95697.84
2023-03-14T00:39:34.728Z,95867.69
2023-03-14T00:40:40.518Z,95859.81
2023-03-14T00:41:42.273Z,95853.53
2023-03-14T00:42:44.415Z,95837.53
2023-03-14T00:43:46.908Z,95808.25
2023-03-14T00:44:48.706Z,95809.28
2023-03-14T00:45:54.098Z,95846.81
2023-03-14T00:46:55.983Z,95852.50
2023-03-14T00:47:57.917Z,95866.00
2023-03-14T00:48:59.716Z,95852.88
2023-03-14T00:50:01.496Z,95814.91
2023-03-14T00:51:05.041Z,95837.72
2023-03-14T00:52:06.787Z,95838.88
2023-03-14T00:53:08.632Z,95811.88
2023-03-14T00:54:10.651Z,95850.13
2023-03-14T00:55:12.464Z,95842.25
2023-03-14T00:56:14.585Z,95713.25
2023-03-14T00:57:16.349Z,95861.78
2023-03-14T00:58:19.452Z,95855.72
2023-03-14T00:59:21.269Z,95861.59
2023-03-14T01:00:23.317Z,95858.50
2023-03-14T01:01:25.519Z,95828.84
2023-03-14T01:02:27.426Z,95851.69
2023-03-14T01:03:29.350Z,95816.56
2023-03-14T01:04:31.192Z,95834.03
2023-03-14T01:05:33.561Z,95680.97
2023-03-14T01:06:35.585Z,95857.75
2023-03-14T01:07:38.180Z,95845.72
2023-03-14T01:08:40.455Z,95839.88
2023-03-14T01:09:42.226Z,95840.56
2023-03-14T01:10:44.222Z,95788.81
2023-03-14T01:11:46.046Z,95827.16
2023-03-14T01:12:48.036Z,95710.72
2023-03-14T01:13:50.977Z,95839.69
2023-03-14T01:14:52.742Z,95825.19
2023-03-14T01:15:54.607Z,95818.94
2023-03-14T01:16:56.586Z,95816.88
2023-03-14T01:17:58.616Z,95835.19
2023-03-14T01:19:00.444Z,95820.34
2023-03-14T01:20:02.564Z,95796.47
2023-03-14T01:21:10.334Z,95833.22
2023-03-14T01:22:12.071Z,95818.06
2023-03-14T01:23:13.864Z,95815.00
2023-03-14T01:24:15.595Z,95838.88
2023-03-14T01:25:18.251Z,95750.91
2023-03-14T01:26:23.173Z,95831.00
2023-03-14T01:27:24.957Z,95820.88
2023-03-14T01:28:27.425Z,95756.06
2023-03-14T01:29:29.369Z,95780.69
2023-03-14T01:30:31.221Z,95813.56
2023-03-14T01:31:33.158Z,95687.09
2023-03-14T01:32:35.385Z,95822.03
2023-03-14T01:33:37.897Z,95654.22
2023-03-14T01:34:39.692Z,95638.16
2023-03-14T01:35:41.610Z,95737.25
2023-03-14T01:36:43.426Z,95825.75
2023-03-14T01:37:45.446Z,95822.56
2023-03-14T01:38:47.791Z,95634.66
2023-03-14T01:39:49.566Z,95804.75
2023-03-14T01:40:51.570Z,95775.19
2023-03-14T01:41:53.392Z,95813.56
2023-03-14T01:42:56.892Z,95789.75
2023-03-14T01:43:59.018Z,95806.28
2023-03-14T01:45:02.525Z,95787.72
2023-03-14T01:46:07.041Z,95827.50
2023-03-14T01:47:08.901Z,95779.81
2023-03-14T01:48:10.688Z,95802.09
2023-03-14T01:49:16.345Z,95821.22
2023-03-14T01:50:18.162Z,95686.16
2023-03-14T01:51:43.586Z,95680.69
2023-03-14T01:52:51.622Z,95797.84
2023-03-14T01:54:03.626Z,95789.72
2023-03-14T01:55:10.545Z,95846.50
2023-03-14T01:56:15.909Z,95796.88
2023-03-14T01:57:24.677Z,95792.25
2023-03-14T01:58:30.485Z,95784.09
2023-03-14T01:59:33.872Z,95768.88
2023-03-14T02:00:35.778Z,95793.91
2023-03-14T02:01:40.507Z,95721.56
2023-03-14T02:02:56.627Z,95774.19
2023-03-14T02:04:02.595Z,95774.19
2023-03-14T02:05:05.602Z,95792.03
2023-03-14T02:06:09.597Z,95775.09
2023-03-14T02:07:18.538Z,95779.31
2023-03-14T02:08:22.512Z,95746.06
2023-03-14T02:09:24.756Z,95789.59
2023-03-14T02:10:33.226Z,95783.06
2023-03-14T02:11:35.532Z,95787.16
2023-03-14T02:12:37.998Z,95784.03
2023-03-14T02:13:40.070Z,95662.19
2023-03-14T02:14:42.440Z,95813.97
2023-03-14T02:15:44.505Z,95628.81
2023-03-14T02:16:46.712Z,95776.59
2023-03-14T02:17:49.026Z,95745.25
2023-03-14T02:18:51.033Z,95618.53
2023-03-14T02:20:01.798Z,95783.47
2023-03-14T02:21:21.110Z,95649.59
2023-03-14T02:22:23.218Z,95789.31
2023-03-14T02:23:46.330Z,95790.78
2023-03-14T02:24:58.878Z,95810.59
2023-03-14T02:26:36.387Z,95795.97
2023-03-14T02:27:39.344Z,95756.88
2023-03-14T02:28:41.146Z,95766.97
2023-03-14T02:29:54.165Z,95762.72
2023-03-14T02:30:55.952Z,95782.44
2023-03-14T02:31:57.738Z,95782.81
2023-03-14T02:33:07.837Z,95797.81
2023-03-14T02:34:09.603Z,95778.63
2023-03-14T02:35:15.365Z,95780.19
2023-03-14T02:36:20.299Z,95789.22
2023-03-14T02:37:26.808Z,95780.69
2023-03-14T02:39:00.652Z,95815.97
2023-03-14T02:40:18.021Z,95778.06
2023-03-14T02:41:19.905Z,95784.44
2023-03-14T02:42:22.817Z,95806.47
2023-03-14T02:43:24.846Z,95788.19
2023-03-14T02:44:26.679Z,95776.56
2023-03-14T02:45:44.352Z,95798.03
2023-03-14T02:46:46.303Z,95792.81
2023-03-14T02:47:55.231Z,95773.28
2023-03-14T02:49:03.015Z,95781.38
2023-03-14T02:50:11.877Z,95807.16
2023-03-14T02:51:15.348Z,95784.41
2023-03-14T02:52:17.181Z,95805.91
2023-03-14T02:53:24.863Z,95790.50
2023-03-14T02:54:26.634Z,95797.13
2023-03-14T02:55:28.425Z,95777.50
2023-03-14T02:56:30.285Z,95773.06
2023-03-14T02:57:32.184Z,95656.19
2023-03-14T02:58:33.995Z,95752.53
2023-03-14T02:59:35.764Z,95809.63
2023-03-14T03:00:37.543Z,95798.47
2023-03-14T03:01:39.482Z,95667.50
2023-03-14T03:02:41.458Z,95786.53
2023-03-14T03:03:43.350Z,95786.19
2023-03-14T03:04:45.300Z,95721.31
2023-03-14T03:05:55.765Z,95645.59
2023-03-14T03:06:57.643Z,95762.59
2023-03-14T03:07:59.719Z,95799.34
2023-03-14T03:09:01.827Z,95800.84
2023-03-14T03:10:04.392Z,95793.19
2023-03-14T03:11:06.633Z,95813.84
2023-03-14T03:12:08.457Z,95812.97
2023-03-14T03:13:10.201Z,95802.34
2023-03-14T03:14:12.028Z,95651.63
2023-03-14T03:15:13.774Z,95802.94
2023-03-14T03:16:15.849Z,95769.28
2023-03-14T03:17:18.257Z,95787.19
2023-03-14T03:18:20.085Z,95767.75
2023-03-14T03:19:21.979Z,95785.47
2023-03-14T03:20:23.822Z,95635.03
2023-03-14T03:21:25.706Z,95786.47
2023-03-14T03:22:27.492Z,95777.94
2023-03-14T03:23:30.623Z,95683.13
2023-03-14T03:24:32.353Z,95721.22
2023-03-14T03:25:34.140Z,95757.63
2023-03-14T03:26:37.000Z,95776.34
2023-03-14T03:27:39.121Z,95802.59
2023-03-14T03:28:40.894Z,95782.66
2023-03-14T03:29:42.700Z,95780.66
2023-03-14T03:30:45.471Z,95679.94
2023-03-14T03:31:47.306Z,95804.81
2023-03-14T03:32:49.718Z,95754.19
2023-03-14T03:33:51.730Z,95795.50
2023-03-14T03:34:53.927Z,95788.28
2023-03-14T03:35:55.749Z,95676.59
2023-03-14T03:36:58.587Z,95612.31
2023-03-14T03:38:00.479Z,95762.78
2023-03-14T03:39:02.235Z,95812.16
2023-03-14T03:40:04.423Z,95810.00
2023-03-14T03:41:08.019Z,95780.56
2023-03-14T03:42:09.929Z,95807.91
2023-03-14T03:43:11.859Z,95762.72
2023-03-14T03:44:13.776Z,95811.72
2023-03-14T03:45:15.614Z,95823.06
2023-03-14T03:46:17.599Z,95788.88
2023-03-14T03:47:19.525Z,95801.09
2023-03-14T03:48:21.283Z,95795.59
2023-03-14T03:49:23.626Z,95805.06
2023-03-14T03:50:25.611Z,95782.75
2023-03-14T03:51:28.310Z,95817.56
2023-03-14T03:52:30.296Z,95656.97
2023-03-14T03:53:33.809Z,95786.91
2023-03-14T03:54:36.711Z,95797.84
2023-03-14T03:55:38.725Z,95797.19
2023-03-14T03:56:40.462Z,95786.13
2023-03-14T03:57:42.249Z,95764.53
2023-03-14T03:58:44.758Z,95790.75
2023-03-14T03:59:46.574Z,95601.47
2023-03-14T04:00:48.387Z,95771.91
2023-03-14T04:01:50.267Z,95773.47
2023-03-14T04:02:52.502Z,95785.97
2023-03-14T04:03:54.612Z,95825.44
2023-03-14T04:04:56.590Z,95786.66
2023-03-14T04:06:08.028Z,95802.41
2023-03-14T04:07:09.829Z,95770.09
2023-03-14T04:08:11.620Z,95797.81
2023-03-14T04:09:13.674Z,95647.84
2023-03-14T04:10:16.237Z,95683.50
2023-03-14T04:11:18.327Z,95784.09
2023-03-14T04:12:20.260Z,95768.16
2023-03-14T04:13:22.094Z,95794.94
2023-03-14T04:14:24.122Z,95796.06
2023-03-14T04:15:25.931Z,95786.72
2023-03-14T04:16:27.919Z,95787.50
2023-03-14T04:17:29.605Z,95745.69
2023-03-14T04:18:31.425Z,95778.84
2023-03-14T04:19:33.359Z,95798.66
2023-03-14T04:20:36.261Z,95749.75
2023-03-14T04:21:38.265Z,95787.66
2023-03-14T04:22:40.725Z,95731.06
2023-03-14T04:23:43.355Z,95785.28
2023-03-14T04:24:45.267Z,95774.91
2023-03-14T04:25:47.312Z,95689.34
2023-03-14T04:26:49.168Z,95813.19
2023-03-14T04:27:53.330Z,95780.34
2023-03-14T04:28:55.321Z,95778.38
2023-03-14T04:29:57.132Z,95737.41
2023-03-14T04:30:59.284Z,95575.22
2023-03-14T04:32:01.061Z,95740.91
2023-03-14T04:33:03.072Z,95779.53
2023-03-14T04:34:04.879Z,95761.53
2023-03-14T04:35:07.381Z,95715.06
2023-03-14T04:36:10.394Z,95763.84
2023-03-14T04:37:12.233Z,95762.06
2023-03-14T04:38:14.896Z,95747.19
2023-03-14T04:39:16.682Z,95708.91
2023-03-14T04:40:19.309Z,95738.63
2023-03-14T04:41:21.205Z,95756.25
2023-03-14T04:42:23.028Z,95764.09
2023-03-14T04:43:24.863Z,95525.31
2023-03-14T04:44:26.813Z,95650.19
2023-03-14T04:45:28.605Z,95745.34
2023-03-14T04:46:30.564Z,95730.44
2023-03-14T04:47:32.396Z,95755.16
2023-03-14T04:48:34.186Z,95760.53
2023-03-14T04:49:35.985Z,95588.47
2023-03-14T04:50:37.756Z,95750.25
2023-03-14T04:51:39.531Z,95747.00
2023-03-14T04:52:41.565Z,95760.31
2023-03-14T04:53:43.405Z,95754.06
2023-03-14T04:54:45.357Z,95646.28
2023-03-14T04:55:52.045Z,95739.25
2023-03-14T04:56:53.884Z,95750.28
2023-03-14T04:57:55.918Z,95670.22
2023-03-14T04:58:57.685Z,95752.25
2023-03-14T04:59:59.480Z,95756.41
2023-03-14T05:01:05.339Z,95667.41
2023-03-14T05:02:07.400Z,95753.13
2023-03-14T05:03:09.226Z,95705.41
2023-03-14T05:04:11.126Z,95758.03
2023-03-14T05:05:13.212Z,95756.44
2023-03-14T05:06:15.212Z,95753.63
2023-03-14T05:07:17.083Z,95713.09
2023-03-14T05:08:18.942Z,95660.25
2023-03-14T05:09:20.749Z,95624.81
2023-03-14T05:10:22.585Z,95773.91
2023-03-14T05:11:24.348Z,95716.94
2023-03-14T05:12:26.158Z,95672.78
2023-03-14T05:13:27.911Z,95723.59
2023-03-14T05:14:29.721Z,95727.03
2023-03-14T05:15:31.636Z,95745.28
2023-03-14T05:16:33.716Z,95714.28
2023-03-14T05:17:36.198Z,95725.44
2023-03-14T05:18:38.853Z,95544.09
2023-03-14T05:19:41.249Z,95747.06
2023-03-14T05:20:43.142Z,95744.59
2023-03-14T05:21:44.858Z,95741.31
2023-03-14T05:22:46.701Z,95725.63
2023-03-14T05:23:48.475Z,95726.03
2023-03-14T05:24:50.396Z,95761.59
2023-03-14T05:25:52.153Z,95731.78
2023-03-14T05:26:54.632Z,95741.03
2023-03-14T05:27:56.901Z,95747.84
2023-03-14T05:28:58.831Z,95613.16
2023-03-14T05:30:00.645Z,95705.56
2023-03-14T05:31:02.496Z,95733.06
2023-03-14T05:32:04.288Z,95718.56
2023-03-14T05:33:06.070Z,95739.91
2023-03-14T05:34:07.872Z,95744.91
2023-03-14T05:35:10.918Z,95725.56
2023-03-14T05:36:13.198Z,95753.88
2023-03-14T05:37:15.016Z,95589.84
2023-03-14T05:38:16.794Z,95726.06
2023-03-14T05:39:18.758Z,95744.63
2023-03-14T05:40:20.635Z,95756.06
2023-03-14T05:41:22.688Z,95679.38
2023-03-14T05:42:24.450Z,95679.66
2023-03-14T05:43:26.267Z,95723.78
2023-03-14T05:44:28.060Z,95683.13
2023-03-14T05:45:29.987Z,95722.81
2023-03-14T05:46:31.938Z,95761.38
2023-03-14T05:47:33.770Z,95778.59
2023-03-14T05:48:35.549Z,95694.34
2023-03-14T05:49:37.298Z,95741.13
2023-03-14T05:50:39.563Z,95747.91
2023-03-14T05:51:41.365Z,95751.81
2023-03-14T05:52:43.147Z,95711.09
2023-03-14T05:53:44.856Z,95712.97
2023-03-14T05:54:46.704Z,95716.44
2023-03-14T05:55:48.536Z,95744.72
2023-03-14T05:56:50.285Z,95622.19
2023-03-14T05:57:52.121Z,95781.75
2023-03-14T05:58:53.949Z,95686.28
2023-03-14T05:59:55.933Z,95734.16
2023-03-14T06:00:57.779Z,95753.19
2023-03-14T06:01:59.806Z,95711.59
2023-03-14T06:03:01.727Z,95714.56
2023-03-14T06:04:03.616Z,95700.69
2023-03-14T06:05:06.162Z,95736.44
2023-03-14T06:06:08.188Z,95757.50
2023-03-14T06:07:10.048Z,95749.13
2023-03-14T06:08:11.790Z,95620.94
2023-03-14T06:09:13.540Z,95729.91
2023-03-14T06:10:15.438Z,95710.19
2023-03-14T06:11:17.260Z,95728.53
2023-03-14T06:12:19.057Z,95718.81
2023-03-14T06:13:20.979Z,95709.00
2023-03-14T06:14:22.689Z,95762.09
2023-03-14T06:15:24.430Z,95726.13
2023-03-14T06:16:26.329Z,95632.50
2023-03-14T06:17:28.199Z,95722.72
2023-03-14T06:18:29.956Z,95712.94
2023-03-14T06:19:31.874Z,95744.06
2023-03-14T06:20:33.958Z,95771.50
2023-03-14T06:21:35.776Z,95752.66
2023-03-14T06:22:37.552Z,95477.53
2023-03-14T06:23:39.419Z,95749.47
2023-03-14T06:24:41.241Z,95774.94
2023-03-14T06:25:42.986Z,95752.13
2023-03-14T06:26:44.796Z,95735.50
2023-03-14T06:27:46.787Z,95639.78
2023-03-14T06:28:48.515Z,95735.88
2023-03-14T06:29:50.309Z,95743.50
2023-03-14T06:30:52.063Z,95755.81
2023-03-14T06:31:53.882Z,95737.53
2023-03-14T06:32:56.156Z,95745.34
2023-03-14T06:33:58.028Z,95723.41
2023-03-14T06:34:59.790Z,95739.06
2023-03-14T06:36:01.646Z,95716.34
2023-03-14T06:37:03.547Z,95697.16
2023-03-14T06:38:05.456Z,95724.56
2023-03-14T06:39:07.301Z,95741.69
2023-03-14T06:40:11.297Z,95726.56
2023-03-14T06:41:13.086Z,95728.81
2023-03-14T06:42:14.898Z,95731.84
2023-03-14T06:43:16.722Z,95732.00
2023-03-14T06:44:18.568Z,95736.56
2023-03-14T06:45:20.462Z,95698.25
2023-03-14T06:46:22.302Z,95629.84
2023-03-14T06:47:24.104Z,95726.53
2023-03-14T06:48:25.937Z,95747.47
2023-03-14T06:49:27.867Z,95721.34
2023-03-14T06:50:29.784Z,95706.63
2023-03-14T06:51:31.542Z,95735.03
2023-03-14T06:52:33.577Z,95728.47
2023-03-14T06:53:35.520Z,95714.38
2023-03-14T06:54:37.355Z,95646.06
2023-03-14T06:55:39.175Z,95677.47
2023-03-14T06:56:40.890Z,95704.66
2023-03-14T06:57:42.701Z,95612.81
2023-03-14T06:58:44.501Z,95699.34
2023-03-14T06:59:46.247Z,95710.13
2023-03-14T07:00:48.094Z,95707.13
2023-03-14T07:01:49.858Z,95695.81
2023-03-14T07:02:51.685Z,95699.69
2023-03-14T07:03:53.465Z,95708.44
2023-03-14T07:04:55.275Z,95630.69
2023-03-14T07:05:57.174Z,95716.09
2023-03-14T07:06:59.003Z,95664.72
2023-03-14T07:08:00.791Z,95681.13
2023-03-14T07:09:03.807Z,95683.66
2023-03-14T07:10:06.668Z,95706.25
2023-03-14T07:11:08.674Z,95723.91
2023-03-14T07:12:10.519Z,95710.97
2023-03-14T07:13:12.278Z,95709.00
2023-03-14T07:14:14.248Z,95680.03
2023-03-14T07:15:19.086Z,95702.09
2023-03-14T07:16:21.572Z,95737.44
2023-03-14T07:17:23.361Z,95692.63
2023-03-14T07:18:25.160Z,95708.69
2023-03-14T07:19:26.965Z,95696.28
2023-03-14T07:20:28.748Z,95562.56
2023-03-14T07:21:30.698Z,95707.31
2023-03-14T07:22:32.511Z,95665.72
2023-03-14T07:23:35.048Z,95696.81
2023-03-14T07:24:37.016Z,95678.03
2023-03-14T07:25:38.965Z,95696.00
2023-03-14T07:26:40.835Z,95703.31
2023-03-14T07:27:45.567Z,95566.00
2023-03-14T07:28:47.492Z,95647.47
2023-03-14T07:29:49.308Z,95693.47
2023-03-14T07:30:51.304Z,95604.19
2023-03-14T07:31:53.296Z,95720.94
2023-03-14T07:32:55.312Z,95688.31
2023-03-14T07:33:57.440Z,95657.69
2023-03-14T07:34:59.244Z,95665.66
2023-03-14T07:36:01.614Z,95688.97
2023-03-14T07:37:03.444Z,95632.66
2023-03-14T07:38:05.302Z,95679.72
2023-03-14T07:39:07.196Z,95650.84
2023-03-14T07:40:09.896Z,95689.78
2023-03-14T07:41:11.843Z,95688.25
2023-03-14T07:42:13.709Z,95666.75
2023-03-14T07:43:15.737Z,95661.50
2023-03-14T07:44:17.646Z,95659.59
2023-03-14T07:45:19.431Z,95667.06
2023-03-14T07:46:21.441Z,95606.66
2023-03-14T07:47:23.434Z,95648.38
2023-03-14T07:48:25.748Z,95673.63
2023-03-14T07:49:27.581Z,95666.66
2023-03-14T07:50:29.479Z,95514.38
2023-03-14T07:51:31.226Z,95667.28
2023-03-14T07:52:33.206Z,95660.66
2023-03-14T07:53:35.097Z,95669.28
2023-03-14T07:54:36.943Z,95668.19
2023-03-14T07:55:40.630Z,95645.25
2023-03-14T07:56:42.383Z,95644.91
2023-03-14T07:57:44.405Z,95656.69
2023-03-14T07:58:46.433Z,95657.03
2023-03-14T07:59:48.437Z,95663.53
2023-03-14T08:00:51.291Z,95646.16
2023-03-14T08:01:53.082Z,95674.06
2023-03-14T08:02:54.871Z,95624.91
2023-03-14T08:03:56.735Z,95678.69
2023-03-14T08:04:58.782Z,95640.91
2023-03-14T08:06:00.626Z,95639.38
2023-03-14T08:07:02.564Z,95661.59
2023-03-14T08:08:06.087Z,95658.28
2023-03-14T08:09:07.993Z,95635.63
2023-03-14T08:10:10.767Z,95649.63
2023-03-14T08:11:12.563Z,95641.16
2023-03-14T08:12:14.319Z,95656.31
2023-03-14T08:13:16.388Z,95661.41
2023-03-14T08:14:18.439Z,95646.88
2023-03-14T08:15:20.480Z,95682.59
2023-03-14T08:16:23.368Z,95617.78
2023-03-14T08:18:02.330Z,95659.78
2023-03-14T08:19:04.558Z,95659.00
2023-03-14T08:20:07.352Z,95653.03
2023-03-14T08:21:09.440Z,95658.31
2023-03-14T08:22:11.362Z,95659.81
2023-03-14T08:23:13.528Z,95637.59
2023-03-14T08:24:15.583Z,95653.00
2023-03-14T08:25:17.955Z,95620.22
2023-03-14T08:26:19.764Z,95666.53
2023-03-14T08:27:21.685Z,95629.47
2023-03-14T08:28:23.597Z,95640.66
2023-03-14T08:29:25.753Z,95653.22
2023-03-14T08:30:27.600Z,95641.47
2023-03-14T08:31:29.431Z,95622.69
2023-03-14T08:32:31.451Z,95644.84
2023-03-14T08:33:33.403Z,95621.16
2023-03-14T08:34:35.484Z,95600.72
2023-03-14T08:35:39.678Z,95651.03
2023-03-14T08:36:42.001Z,95611.22
2023-03-14T08:37:44.346Z,95637.13
2023-03-14T08:38:46.398Z,95604.03
2023-03-14T08:39:48.528Z,95634.91
2023-03-14T08:40:50.474Z,95632.47
2023-03-14T08:41:52.520Z,95638.34
2023-03-14T08:42:54.683Z,95609.84
2023-03-14T08:43:56.796Z,95626.69
2023-03-14T08:44:58.772Z,95617.59
2023-03-14T08:46:01.980Z,95486.31
2023-03-14T08:47:03.989Z,95577.09
2023-03-14T08:48:06.628Z,95610.69
2023-03-14T08:49:08.435Z,95621.69
2023-03-14T08:50:14.655Z,95592.03
2023-03-14T08:51:17.830Z,95613.06
2023-03-14T08:52:19.688Z,95580.13
2023-03-14T08:53:21.553Z,95615.28
2023-03-14T08:54:23.476Z,95600.75
2023-03-14T08:55:25.313Z,95590.69
2023-03-14T08:56:27.073Z,95569.28
2023-03-14T08:57:28.870Z,95584.50
2023-03-14T08:58:30.689Z,95591.38
2023-03-14T08:59:32.450Z,95570.22
2023-03-14T09:00:34.268Z,95584.00
2023-03-14T09:01:36.119Z,95592.22
2023-03-14T09:02:38.150Z,95464.41
2023-03-14T09:03:40.264Z,95487.19
2023-03-14T09:04:42.087Z,95530.28
2023-03-14T09:05:43.861Z,95579.81
2023-03-14T09:06:45.614Z,95464.69
2023-03-14T09:07:47.452Z,95582.28
2023-03-14T09:08:49.335Z,95509.53
2023-03-14T09:09:51.145Z,95580.25
2023-03-14T09:10:52.977Z,95546.59
2023-03-14T09:11:54.792Z,95544.84
2023-03-14T09:12:56.594Z,95559.28
2023-03-14T09:13:58.555Z,95547.00
2023-03-14T09:15:00.562Z,95555.31
2023-03-14T09:16:02.321Z,95539.72
2023-03-14T09:17:04.625Z,95407.03
2023-03-14T09:18:06.387Z,95483.88
2023-03-14T09:19:08.252Z,95547.13
2023-03-14T09:20:12.754Z,95566.31
2023-03-14T09:21:14.575Z,95554.75
2023-03-14T09:22:16.424Z,95491.13
2023-03-14T09:23:18.371Z,95492.19
2023-03-14T09:24:20.158Z,95533.78
2023-03-14T09:25:22.159Z,95548.44
2023-03-14T09:26:23.884Z,95530.25
2023-03-14T09:27:25.607Z,95516.44
2023-03-14T09:28:27.993Z,95523.59
2023-03-14T09:29:30.082Z,95519.53
2023-03-14T09:30:31.858Z,95524.63
2023-03-14T09:31:33.697Z,95539.47
2023-03-14T09:32:35.625Z,95495.44
2023-03-14T09:33:38.575Z,95500.53
2023-03-14T09:34:40.340Z,95502.38
2023-03-14T09:35:42.175Z,95512.09
2023-03-14T09:36:44.123Z,95481.88
2023-03-14T09:37:45.975Z,95332.44
2023-03-14T09:38:48.044Z,95540.50
2023-03-14T09:39:49.882Z,95514.16
2023-03-14T09:40:51.946Z,95510.03
2023-03-14T09:41:56.521Z,95505.19
2023-03-14T09:42:58.509Z,95463.94
2023-03-14T09:44:09.747Z,95516.69
2023-03-14T09:45:24.515Z,95510.03
2023-03-14T09:46:26.330Z,95461.59
2023-03-14T09:47:28.958Z,95358.56
2023-03-14T09:48:33.831Z,95480.53
2023-03-14T09:49:40.314Z,95489.47
2023-03-14T09:50:46.022Z,95448.50
2023-03-14T09:51:50.906Z,95475.81
2023-03-14T09:53:00.498Z,95486.09
2023-03-14T09:54:02.796Z,95451.06
2023-03-14T09:55:07.845Z,95460.03
2023-03-14T09:56:34.863Z,95477.44
2023-03-14T09:57:37.484Z,95469.16
2023-03-14T09:58:43.558Z,95479.28
2023-03-14T09:59:50.090Z,95447.34
2023-03-14T10:00:56.475Z,95471.06
2023-03-14T10:02:21.170Z,95476.28
2023-03-14T10:03:36.078Z,95456.22
2023-03-14T10:04:39.649Z,95465.66
2023-03-14T10:05:42.905Z,95465.72
2023-03-14T10:06:44.673Z,95455.22
2023-03-14T10:07:46.540Z,95330.41
2023-03-14T10:08:48.344Z,95460.06
2023-03-14T10:09:52.501Z,95335.53
2023-03-14T10:10:55.898Z,95430.88
2023-03-14T10:12:01.865Z,95418.00
2023-03-14T10:13:15.304Z,95456.50
2023-03-14T10:14:45.254Z,95300.00
2023-03-14T10:16:00.258Z,95423.38
2023-03-14T10:17:10.520Z,95438.41
2023-03-14T10:18:13.881Z,95431.00
2023-03-14T10:19:17.722Z,95414.13
2023-03-14T10:20:38.240Z,95413.06
2023-03-14T10:21:42.498Z,95418.94
2023-03-14T10:22:44.559Z,95373.50
2023-03-14T10:23:48.512Z,95430.84
2023-03-14T10:24:55.860Z,95397.91
2023-03-14T10:26:14.770Z,95424.13
2023-03-14T10:27:23.017Z,95389.44
2023-03-14T10:28:30.447Z,95394.03
2023-03-14T10:29:34.197Z,95386.31
2023-03-14T10:30:46.748Z,95388.00
2023-03-14T10:31:55.970Z,95396.47
2023-03-14T10:32:58.039Z,95395.25
2023-03-14T10:34:05.988Z,95356.09
2023-03-14T10:35:16.785Z,95414.47
2023-03-14T10:36:28.428Z,95376.84
2023-03-14T10:37:30.372Z,95349.25
2023-03-14T10:38:37.792Z,95325.56
2023-03-14T10:39:50.196Z,95383.72
2023-03-14T10:40:54.544Z,95369.47
2023-03-14T10:42:04.750Z,95357.72
2023-03-14T10:43:14.208Z,95352.53
2023-03-14T10:44:20.953Z,95227.00
2023-03-14T10:45:32.150Z,95343.38
2023-03-14T10:46:34.046Z,95356.44
2023-03-14T10:47:35.952Z,95334.63
2023-03-14T10:48:39.667Z,95237.28
2023-03-14T10:49:41.413Z,95353.53
2023-03-14T10:50:50.628Z,95346.47
2023-03-14T10:51:52.441Z,95324.22
2023-03-14T10:53:03.637Z,95332.88
2023-03-14T10:54:20.915Z,95266.75
2023-03-14T10:55:25.588Z,95326.94
2023-03-14T10:56:34.233Z,95340.41
2023-03-14T10:57:43.136Z,95325.84
2023-03-14T10:58:47.855Z,95344.72
2023-03-14T10:59:49.714Z,95276.13
2023-03-14T11:01:30.102Z,95319.69
2023-03-14T11:02:59.582Z,95328.19
2023-03-14T11:04:20.299Z,95323.81
2023-03-14T11:05:36.976Z,95321.31
2023-03-14T11:06:56.920Z,95331.47
2023-03-14T11:08:10.606Z,95313.69
2023-03-14T11:09:20.017Z,95291.88
2023-03-14T11:10:35.092Z,95299.22
2023-03-14T11:11:38.293Z,95299.50
2023-03-14T11:12:48.298Z,95268.63
2023-03-14T11:14:08.338Z,95184.03
2023-03-14T11:15:46.890Z,95290.44
2023-03-14T11:17:11.263Z,95268.03
2023-03-14T11:18:50.736Z,95273.69
2023-03-14T11:20:01.633Z,95280.50
2023-03-14T11:21:33.524Z,95243.38
2023-03-14T11:22:47.742Z,95272.59
2023-03-14T11:23:58.705Z,95279.53
2023-03-14T11:25:23.780Z,95248.19
2023-03-14T11:26:25.467Z,95280.41
2023-03-14T11:27:44.243Z,95259.50
2023-03-14T11:29:24.514Z,95257.63
2023-03-14T11:30:51.981Z,95230.34
2023-03-14T11:31:57.276Z,95250.38
2023-03-14T11:33:22.063Z,95227.41
2023-03-14T11:34:34.076Z,95238.66
2023-03-14T11:35:59.112Z,95218.50
2023-03-14T11:37:05.971Z,95224.28
2023-03-14T11:38:35.223Z,95198.66
2023-03-14T11:39:48.319Z,95227.00
2023-03-14T11:40:52.551Z,95217.25
2023-03-14T11:41:55.201Z,95073.03
2023-03-14T11:43:30.535Z,95212.63
2023-03-14T11:44:38.344Z,95207.69
2023-03-14T11:45:43.340Z,95205.81
2023-03-14T11:46:50.474Z,95212.53
2023-03-14T11:48:17.705Z,95203.81
2023-03-14T11:49:46.954Z,95205.63
2023-03-14T11:50:54.230Z,95206.66
2023-03-14T11:52:00.125Z,95206.19
2023-03-14T11:53:15.255Z,95203.94
2023-03-14T11:54:31.760Z,95210.41
2023-03-14T11:55:38.494Z,95194.25
2023-03-14T11:57:00.816Z,95099.41
2023-03-14T11:58:20.071Z,95172.16
2023-03-14T11:59:46.846Z,95085.28
2023-03-14T12:00:51.715Z,95166.16
2023-03-14T12:02:33.476Z,95075.50
2023-03-14T12:03:44.415Z,95054.28
2023-03-14T12:05:12.680Z,95173.66
2023-03-14T12:06:29.242Z,95129.25
2023-03-14T12:07:56.859Z,95063.13
2023-03-14T12:09:06.657Z,95118.38
2023-03-14T12:10:08.560Z,94994.13
2023-03-14T12:11:16.452Z,95023.09
2023-03-14T12:12:23.563Z,95142.75
2023-03-14T12:13:37.687Z,95117.13
2023-03-14T12:14:47.945Z,95140.25
2023-03-14T12:15:57.506Z,95141.97
2023-03-14T12:17:07.481Z,95137.16
2023-03-14T12:18:39.671Z,95136.34
2023-03-14T12:19:42.380Z,95128.31
2023-03-14T12:20:54.508Z,95102.56
2023-03-14T12:22:01.656Z,95126.25
2023-03-14T12:23:06.608Z,95117.75
2023-03-14T12:24:25.382Z,95095.66
2023-03-14T12:25:30.810Z,95112.41
2023-03-14T12:26:53.190Z,95094.72
2023-03-14T12:27:57.937Z,94996.06
2023-03-14T12:29:05.790Z,95110.72
2023-03-14T12:30:18.819Z,95100.53
2023-03-14T12:31:32.505Z,94961.03
2023-03-14T12:32:34.496Z,95108.09
2023-03-14T12:33:36.397Z,95103.31
2023-03-14T12:34:43.911Z,95109.41
2023-03-14T12:35:54.222Z,95076.00
2023-03-14T12:37:07.476Z,95110.97
2023-03-14T12:38:36.639Z,95101.03
2023-03-14T12:40:07.260Z,95094.03